Time;durP1;ratioP1;P1;durP2;ratioP2;P2;SDS_P1;SDS_P2;PMS_P1;PMS_P2;Temp;Humidity;BMP_temperature;BMP_pressure;BME280_temperature;BME280_humidity;BME280_pressure;Samples;Min_cycle;Max_cycle;Signal;HPM_P1;HPM_P2
2021/04/16 00:01:56;;;;;;;1.15;1.05;;;4.50;99.90;;;;;;5092640;28;20024;-75
2021/04/16 00:04:21;;;;;;;1.50;1.17;;;4.40;99.90;;;;;;5093136;28;20493;-76
2021/04/16 00:06:48;;;;;;;1.63;1.30;;;4.40;99.90;;;;;;5091767;28;20020;-75
2021/04/16 00:09:14;;;;;;;1.88;1.27;;;4.40;99.90;;;;;;5090839;28;20028;-76
2021/04/16 00:11:39;;;;;;;1.73;1.10;;;4.30;99.90;;;;;;5093366;28;20080;-75
2021/04/16 00:14:05;;;;;;;4.18;1.38;;;4.30;99.90;;;;;;5093791;28;20028;-75
2021/04/16 00:16:31;;;;;;;2.78;1.20;;;4.30;99.90;;;;;;5094233;28;20416;-76
2021/04/16 00:18:57;;;;;;;4.03;1.17;;;4.30;99.90;;;;;;5113457;28;20039;-75
2021/04/16 00:21:25;;;;;;;2.47;1.20;;;4.20;99.90;;;;;;5117195;28;20024;-75
2021/04/16 00:23:51;;;;;;;1.25;0.98;;;4.20;99.90;;;;;;5120788;28;20016;-75
2021/04/16 00:26:16;;;;;;;1.92;1.17;;;4.20;99.90;;;;;;5119957;28;20110;-74
2021/04/16 00:28:42;;;;;;;3.88;1.30;;;4.20;99.90;;;;;;5120624;28;20043;-74
2021/04/16 00:31:21;;;;;;;2.20;1.50;;;4.20;99.90;;;;;;5121274;28;20087;-74
2021/04/16 00:33:47;;;;;;;2.67;1.50;;;4.20;99.90;;;;;;5103468;28;20075;-75
2021/04/16 00:36:14;;;;;;;2.40;1.30;;;4.20;99.90;;;;;;5100548;28;20036;-77
2021/04/16 00:38:41;;;;;;;1.98;1.15;;;4.10;99.90;;;;;;5098485;28;20373;-75
2021/04/16 00:41:12;;;;;;;1.15;1.05;;;4.10;99.90;;;;;;5096285;28;20039;-76
2021/04/16 00:43:38;;;;;;;1.73;1.10;;;4.10;99.90;;;;;;5095373;28;20035;-75
2021/04/16 00:46:13;;;;;;;2.75;1.10;;;4.10;99.90;;;;;;5096755;28;20044;-76
2021/04/16 00:48:49;;;;;;;1.75;1.52;;;4.10;99.90;;;;;;5095578;28;20067;-76
2021/04/16 00:51:28;;;;;;;0.90;0.90;;;4.00;99.90;;;;;;5096161;28;20013;-76
2021/04/16 00:53:55;;;;;;;3.65;1.10;;;4.00;99.90;;;;;;5095292;28;20036;-76
2021/04/16 00:56:21;;;;;;;1.77;1.20;;;4.00;99.90;;;;;;5095729;28;20020;-75
2021/04/16 00:58:48;;;;;;;2.25;1.38;;;4.00;99.90;;;;;;5095738;28;20032;-75
2021/04/16 01:01:13;;;;;;;3.10;1.65;;;4.00;99.90;;;;;;5094957;28;20026;-76
2021/04/16 01:03:39;;;;;;;2.50;1.42;;;4.00;99.90;;;;;;5094156;28;20036;-76
2021/04/16 01:06:08;;;;;;;2.30;1.30;;;3.90;99.90;;;;;;5095879;28;20028;-75
2021/04/16 01:08:35;;;;;;;2.05;1.50;;;3.90;99.90;;;;;;5094197;28;20377;-74
2021/04/16 01:11:01;;;;;;;1.63;1.27;;;3.90;99.90;;;;;;5095056;28;20028;-75
2021/04/16 01:13:27;;;;;;;1.25;1.05;;;3.90;99.90;;;;;;5095604;28;20109;-76
2021/04/16 01:16:03;;;;;;;2.60;2.03;;;3.90;99.90;;;;;;5095464;28;20024;-75
2021/04/16 01:18:33;;;;;;;1.58;1.00;;;3.90;99.90;;;;;;5094874;28;20020;-75
2021/04/16 01:21:04;;;;;;;2.72;1.38;;;3.90;99.90;;;;;;5094445;28;20028;-76
2021/04/16 01:24:09;;;;;;;3.70;1.55;;;3.90;99.90;;;;;;5095566;28;20035;-76
2021/04/16 01:26:38;;;;;;;3.55;1.40;;;3.80;99.90;;;;;;5092639;28;20039;-74
2021/04/16 01:29:05;;;;;;;3.03;1.42;;;3.80;99.90;;;;;;5095253;28;20383;-75
2021/04/16 01:31:31;;;;;;;1.48;1.38;;;3.80;99.90;;;;;;5094818;28;20506;-75
2021/04/16 01:33:57;;;;;;;1.70;1.45;;;3.80;99.90;;;;;;5094472;28;20031;-74
2021/04/16 01:36:28;;;;;;;5.25;1.30;;;3.80;99.90;;;;;;5094933;28;20472;-75
2021/04/16 01:38:56;;;;;;;4.50;1.48;;;3.80;99.90;;;;;;5093799;28;20055;-74
2021/04/16 01:41:25;;;;;;;2.13;1.67;;;3.80;99.90;;;;;;5093486;28;20024;-74
2021/04/16 01:44:00;;;;;;;2.10;1.52;;;3.70;99.90;;;;;;5092876;28;20074;-74
2021/04/16 01:46:27;;;;;;;1.20;1.10;;;3.80;99.90;;;;;;5095767;28;20062;-75
2021/04/16 01:48:58;;;;;;;3.13;1.73;;;3.70;99.90;;;;;;5095192;28;20031;-74
2021/04/16 01:51:31;;;;;;;2.47;1.52;;;3.70;99.90;;;;;;5095943;28;20108;-73
2021/04/16 01:54:21;;;;;;;2.63;1.95;;;3.70;99.90;;;;;;5095041;28;20033;-74
2021/04/16 01:56:49;;;;;;;2.22;1.50;;;3.70;99.90;;;;;;5113460;28;20021;-74
2021/04/16 01:59:18;;;;;;;2.83;1.77;;;3.70;99.90;;;;;;5115393;28;20040;-74
2021/04/16 02:01:44;;;;;;;6.00;1.75;;;3.70;99.90;;;;;;5116698;28;20028;-74
2021/04/16 02:04:11;;;;;;;3.15;2.10;;;3.70;99.90;;;;;;5117994;28;20034;-74
2021/04/16 02:06:37;;;;;;;3.78;2.00;;;3.70;99.90;;;;;;5119270;28;20031;-74
2021/04/16 02:09:09;;;;;;;2.33;1.80;;;3.70;99.90;;;;;;5118545;28;20083;-74
2021/04/16 02:11:39;;;;;;;1.88;1.33;;;3.70;99.90;;;;;;5103437;28;20027;-74
2021/04/16 02:14:12;;;;;;;4.15;1.50;;;3.70;99.90;;;;;;5098935;28;20028;-74
2021/04/16 02:16:38;;;;;;;2.67;1.58;;;3.70;99.90;;;;;;5095504;28;20185;-73
2021/04/16 02:19:04;;;;;;;2.53;1.80;;;3.70;99.90;;;;;;5095522;28;20110;-74
2021/04/16 02:21:31;;;;;;;3.13;1.63;;;3.70;99.90;;;;;;5093415;28;20486;-74
2021/04/16 02:23:57;;;;;;;3.08;1.55;;;3.70;99.90;;;;;;5092704;28;20016;-74
2021/04/16 02:26:22;;;;;;;3.25;1.70;;;3.60;99.90;;;;;;5093175;28;20498;-74
2021/04/16 02:28:48;;;;;;;3.22;1.77;;;3.60;99.90;;;;;;5093118;28;20372;-74
2021/04/16 02:31:14;;;;;;;3.80;1.70;;;3.60;99.90;;;;;;5094340;28;20028;-73
2021/04/16 02:33:39;;;;;;;2.83;1.92;;;3.70;99.90;;;;;;5092311;28;20032;-74
2021/04/16 02:36:07;;;;;;;2.80;1.90;;;3.60;99.90;;;;;;5094363;28;20028;-74
2021/04/16 02:38:33;;;;;;;2.75;1.80;;;3.60;99.90;;;;;;5093573;28;20050;-74
2021/04/16 02:40:59;;;;;;;3.20;1.85;;;3.60;99.90;;;;;;5093459;28;20024;-74
2021/04/16 02:43:25;;;;;;;1.65;1.30;;;3.60;99.90;;;;;;5093637;28;20464;-73
2021/04/16 02:45:50;;;;;;;3.80;2.10;;;3.60;99.90;;;;;;5092241;28;20084;-74
2021/04/16 02:48:16;;;;;;;6.88;2.08;;;3.60;99.90;;;;;;5093700;28;20031;-74
2021/04/16 02:50:42;;;;;;;2.08;1.75;;;3.60;99.90;;;;;;5093120;28;20140;-74
2021/04/16 02:53:08;;;;;;;8.05;1.52;;;3.70;99.90;;;;;;5093392;28;20115;-74
2021/04/16 02:55:33;;;;;;;1.85;1.65;;;3.60;99.90;;;;;;5093014;28;20031;-74
2021/04/16 02:57:59;;;;;;;3.60;2.10;;;3.60;99.90;;;;;;5093318;28;20016;-74
2021/04/16 03:00:29;;;;;;;4.10;1.65;;;3.60;99.90;;;;;;5092241;28;20039;-74
2021/04/16 03:02:55;;;;;;;8.27;2.40;;;3.60;99.90;;;;;;5093502;28;20034;-74
2021/04/16 03:05:21;;;;;;;3.63;1.75;;;3.70;99.90;;;;;;5094055;28;20474;-73
2021/04/16 03:07:46;;;;;;;7.13;1.73;;;3.60;99.90;;;;;;5091861;28;20024;-74
2021/04/16 03:10:14;;;;;;;4.80;1.92;;;3.60;99.90;;;;;;5093916;28;20059;-73
2021/04/16 03:12:40;;;;;;;3.38;2.10;;;3.60;99.90;;;;;;5093088;28;20036;-75
2021/04/16 03:15:07;;;;;;;3.10;1.50;;;3.60;99.90;;;;;;5092427;28;20042;-75
2021/04/16 03:17:33;;;;;;;6.70;2.28;;;3.70;99.90;;;;;;5091232;28;20016;-76
2021/04/16 03:19:59;;;;;;;3.58;1.63;;;3.70;99.90;;;;;;5093212;28;20023;-76
2021/04/16 03:22:24;;;;;;;4.22;2.20;;;3.60;99.90;;;;;;5092961;28;20020;-75
2021/04/16 03:24:50;;;;;;;4.30;1.63;;;3.60;99.90;;;;;;5093965;28;20039;-75
2021/04/16 03:27:16;;;;;;;4.10;2.70;;;3.70;99.90;;;;;;5094719;28;20032;-76
2021/04/16 03:29:41;;;;;;;2.45;1.90;;;3.60;99.90;;;;;;5095096;28;20028;-75
2021/04/16 03:32:07;;;;;;;3.03;1.73;;;3.60;99.90;;;;;;5111080;28;20040;-75
2021/04/16 03:34:33;;;;;;;2.88;1.80;;;3.70;99.90;;;;;;5114507;28;20075;-74
2021/04/16 03:36:58;;;;;;;5.70;2.17;;;3.70;99.90;;;;;;5114523;28;20034;-74
2021/04/16 03:39:24;;;;;;;3.58;1.83;;;3.70;99.90;;;;;;5106333;28;20024;-75
2021/04/16 03:41:50;;;;;;;2.65;2.17;;;3.60;99.90;;;;;;5094680;28;20024;-73
2021/04/16 03:44:16;;;;;;;3.10;2.78;;;3.60;99.90;;;;;;5093407;28;20466;-73
2021/04/16 03:46:42;;;;;;;3.20;2.13;;;3.60;99.90;;;;;;5092770;28;20066;-74
2021/04/16 03:49:08;;;;;;;4.30;2.25;;;3.60;99.90;;;;;;5092391;28;20046;-74
2021/04/16 03:51:47;;;;;;;2.83;1.92;;;3.60;99.90;;;;;;5091447;28;20555;-74
2021/04/16 03:54:13;;;;;;;4.13;1.98;;;3.70;99.90;;;;;;5093091;28;20024;-75
2021/04/16 03:56:39;;;;;;;4.85;2.30;;;3.70;99.90;;;;;;5089642;28;20391;-74
2021/04/16 03:59:04;;;;;;;2.40;1.80;;;3.60;99.90;;;;;;5092670;28;20066;-75
2021/04/16 04:01:31;;;;;;;4.47;1.80;;;3.60;99.90;;;;;;5092219;28;20084;-75
2021/04/16 04:03:56;;;;;;;4.47;2.55;;;3.70;99.90;;;;;;5091344;28;20032;-74
2021/04/16 04:06:22;;;;;;;7.43;2.33;;;3.60;99.90;;;;;;5090993;28;20058;-73
2021/04/16 04:08:47;;;;;;;3.88;2.10;;;3.60;99.90;;;;;;5090227;28;20028;-73
2021/04/16 04:11:13;;;;;;;3.25;2.20;;;3.60;99.90;;;;;;5092940;28;20472;-73
2021/04/16 04:13:38;;;;;;;7.68;2.63;;;3.60;99.90;;;;;;5090193;28;20028;-75
2021/04/16 04:16:04;;;;;;;4.22;2.03;;;3.60;99.90;;;;;;5091966;28;20020;-73
2021/04/16 04:18:30;;;;;;;5.60;2.58;;;3.60;99.90;;;;;;5090648;28;20048;-73
2021/04/16 04:20:56;;;;;;;8.55;2.03;;;3.60;99.90;;;;;;5092521;28;20032;-74
2021/04/16 04:23:22;;;;;;;7.82;1.90;;;3.60;99.90;;;;;;5091269;28;20031;-74
2021/04/16 04:25:48;;;;;;;5.53;2.10;;;3.70;99.90;;;;;;5091369;28;20476;-74
2021/04/16 04:28:13;;;;;;;2.67;1.90;;;3.70;99.90;;;;;;5090928;28;20028;-73
2021/04/16 04:30:39;;;;;;;4.75;2.33;;;3.70;99.90;;;;;;5089258;28;20078;-73
2021/04/16 04:33:06;;;;;;;6.28;2.20;;;3.70;99.90;;;;;;5088647;28;20032;-74
2021/04/16 04:35:32;;;;;;;4.10;1.98;;;3.70;99.90;;;;;;5092350;28;20438;-73
2021/04/16 04:37:57;;;;;;;4.10;2.20;;;3.70;99.90;;;;;;5091397;28;20399;-74
2021/04/16 04:40:24;;;;;;;6.40;2.15;;;3.80;99.90;;;;;;5090951;28;20115;-74
2021/04/16 04:42:50;;;;;;;3.47;1.85;;;3.80;99.90;;;;;;5091931;28;20472;-74
2021/04/16 04:45:16;;;;;;;5.00;2.20;;;3.80;99.90;;;;;;5092038;28;20097;-74
2021/04/16 04:47:42;;;;;;;5.78;1.92;;;3.80;99.90;;;;;;5091031;28;20086;-74
2021/04/16 04:50:09;;;;;;;5.00;2.33;;;3.80;99.90;;;;;;5092505;28;20032;-74
2021/04/16 04:52:36;;;;;;;9.45;3.10;;;3.80;99.90;;;;;;5090316;28;20067;-74
2021/04/16 04:55:15;;;;;;;5.38;2.10;;;3.90;99.90;;;;;;5091260;28;20024;-74
2021/04/16 04:57:41;;;;;;;2.97;2.03;;;3.90;99.90;;;;;;5091202;28;20388;-75
2021/04/16 05:00:10;;;;;;;4.70;2.13;;;3.90;99.90;;;;;;5093004;28;20043;-75
2021/04/16 05:02:35;;;;;;;3.97;2.30;;;3.90;99.90;;;;;;5093859;28;20036;-75
2021/04/16 05:05:01;;;;;;;7.22;2.50;;;3.90;99.90;;;;;;5101391;28;20024;-74
2021/04/16 05:07:27;;;;;;;5.28;2.58;;;4.00;99.90;;;;;;5114118;28;20019;-74
2021/04/16 05:09:52;;;;;;;6.00;2.47;;;4.00;99.90;;;;;;5117743;28;20032;-74
2021/04/16 05:12:19;;;;;;;6.43;2.38;;;4.00;99.90;;;;;;5117482;28;20048;-75
2021/04/16 05:14:44;;;;;;;3.40;2.13;;;4.00;99.90;;;;;;5119262;28;20027;-73
2021/04/16 05:17:10;;;;;;;9.45;2.50;;;4.00;99.90;;;;;;5118742;28;20072;-74
2021/04/16 05:19:36;;;;;;;4.40;2.67;;;4.00;99.90;;;;;;5114821;28;20484;-74
2021/04/16 05:22:03;;;;;;;3.85;2.13;;;4.10;99.90;;;;;;5098147;28;20035;-73
2021/04/16 05:24:31;;;;;;;2.85;1.90;;;4.10;99.90;;;;;;5098078;28;20035;-73
2021/04/16 05:26:59;;;;;;;5.88;2.35;;;4.10;99.90;;;;;;5096078;28;20040;-73
2021/04/16 05:29:25;;;;;;;8.23;3.25;;;4.10;99.90;;;;;;5095818;28;20021;-73
2021/04/16 05:31:51;;;;;;;8.00;3.00;;;4.10;99.90;;;;;;5094073;28;20025;-74
2021/04/16 05:34:17;;;;;;;7.07;2.72;;;4.20;99.90;;;;;;5094992;28;20093;-76
2021/04/16 05:36:42;;;;;;;10.45;1.92;;;4.20;99.90;;;;;;5093935;28;20024;-74
2021/04/16 05:39:08;;;;;;;6.20;2.80;;;4.30;99.90;;;;;;5091893;28;20030;-73
2021/04/16 05:41:33;;;;;;;5.75;2.28;;;4.30;99.90;;;;;;5092462;28;20430;-73
2021/04/16 05:43:59;;;;;;;4.60;1.98;;;4.40;99.90;;;;;;5091873;28;20028;-76
2021/04/16 05:46:24;;;;;;;3.30;2.20;;;4.40;99.90;;;;;;5093427;28;20067;-74
2021/04/16 05:48:50;;;;;;;7.40;2.58;;;4.50;99.90;;;;;;5095050;28;20028;-74
2021/04/16 05:51:16;;;;;;;5.22;2.95;;;4.60;99.90;;;;;;5095408;28;20099;-74
2021/04/16 05:53:41;;;;;;;4.43;2.55;;;4.80;99.90;;;;;;5094454;28;20445;-74
2021/04/16 05:56:07;;;;;;;6.03;2.60;;;5.00;99.90;;;;;;5092957;28;20076;-75
2021/04/16 05:58:33;;;;;;;6.82;3.05;;;5.20;99.90;;;;;;5092408;28;20474;-75
2021/04/16 06:00:59;;;;;;;8.05;3.38;;;5.30;99.90;;;;;;5094904;28;20027;-75
2021/04/16 06:03:24;;;;;;;7.57;3.10;;;5.40;99.90;;;;;;5093093;28;20023;-75
2021/04/16 06:05:50;;;;;;;8.10;3.70;;;5.50;99.90;;;;;;5094236;28;20035;-74
2021/04/16 06:08:19;;;;;;;9.90;3.67;;;5.60;99.90;;;;;;5092887;28;20113;-75
2021/04/16 06:10:45;;;;;;;12.23;4.22;;;5.60;99.90;;;;;;5094532;28;20495;-75
2021/04/16 06:13:11;;;;;;;7.07;4.07;;;5.70;99.90;;;;;;5094250;28;20531;-74
2021/04/16 06:15:36;;;;;;;12.07;5.10;;;5.80;99.90;;;;;;5094688;28;20111;-76
2021/04/16 06:18:02;;;;;;;11.70;4.50;;;5.90;99.90;;;;;;5094554;28;20056;-75
2021/04/16 06:20:28;;;;;;;10.05;4.60;;;6.00;99.90;;;;;;5094802;28;20025;-76
2021/04/16 06:22:56;;;;;;;9.13;4.57;;;6.00;99.90;;;;;;5093834;28;20553;-75
2021/04/16 06:25:34;;;;;;;9.68;4.78;;;6.10;99.90;;;;;;5092748;28;20028;-76
2021/04/16 06:28:02;;;;;;;13.13;4.82;;;6.10;99.90;;;;;;5082684;28;20545;-75
2021/04/16 06:30:28;;;;;;;10.50;3.65;;;6.20;99.90;;;;;;5094441;28;20428;-76
2021/04/16 06:33:13;;;;;;;14.18;4.88;;;6.30;99.90;;;;;;5094332;28;20050;-76
2021/04/16 06:35:41;;;;;;;10.68;5.00;;;6.40;99.90;;;;;;5093417;28;20024;-75
2021/04/16 06:38:09;;;;;;;9.80;4.68;;;6.50;99.90;;;;;;5093106;28;20039;-76
2021/04/16 06:40:34;;;;;;;12.20;5.20;;;6.50;99.90;;;;;;5095215;28;20077;-76
2021/04/16 06:43:00;;;;;;;18.75;6.00;;;6.60;99.90;;;;;;5106654;28;20024;-75
2021/04/16 06:45:31;;;;;;;10.95;4.82;;;6.60;99.90;;;;;;5131371;28;20063;-74
2021/04/16 06:48:00;;;;;;;13.60;5.88;;;6.80;99.90;;;;;;5115779;28;20024;-74
2021/04/16 06:50:39;;;;;;;14.88;6.35;;;6.80;99.90;;;;;;5118144;28;20012;-74
2021/04/16 06:53:13;;;;;;;13.70;6.10;;;6.80;99.90;;;;;;5116394;28;20027;-73
2021/04/16 06:56:02;;;;;;;12.10;5.47;;;6.90;99.90;;;;;;5117830;28;20081;-74
2021/04/16 06:58:34;;;;;;;13.85;5.95;;;7.10;99.90;;;;;;5105488;28;20036;-75
2021/04/16 07:01:14;;;;;;;16.17;6.03;;;7.10;99.90;;;;;;5095364;28;20537;-75
2021/04/16 07:03:49;;;;;;;15.63;6.15;;;7.30;99.90;;;;;;5092432;28;20038;-74
2021/04/16 07:06:29;;;;;;;16.58;6.43;;;7.40;99.90;;;;;;5082603;28;20092;-75
2021/04/16 07:09:06;;;;;;;18.60;6.85;;;7.50;99.90;;;;;;5089343;28;20046;-75
2021/04/16 07:11:38;;;;;;;17.95;6.72;;;7.60;99.90;;;;;;5091711;28;20016;-75
2021/04/16 07:14:11;;;;;;;14.60;6.30;;;7.70;99.90;;;;;;5092940;28;20047;-75
2021/04/16 07:16:37;;;;;;;19.70;6.28;;;7.80;99.90;;;;;;5091144;28;20016;-75
2021/04/16 07:19:13;;;;;;;20.25;7.57;;;7.80;99.90;;;;;;5087548;28;20373;-75
2021/04/16 07:21:39;;;;;;;21.52;7.28;;;7.90;99.90;;;;;;5087042;28;20021;-75
2021/04/16 07:24:06;;;;;;;16.73;7.18;;;8.00;99.90;;;;;;5089467;28;20042;-75
2021/04/16 07:26:38;;;;;;;22.02;7.07;;;8.10;99.90;;;;;;5092832;28;20495;-74
2021/04/16 07:29:04;;;;;;;18.55;7.28;;;8.30;99.90;;;;;;5091456;28;20024;-75
2021/04/16 07:31:36;;;;;;;16.92;6.40;;;8.50;99.90;;;;;;5090004;28;20032;-76
2021/04/16 07:34:03;;;;;;;13.52;4.97;;;8.60;99.90;;;;;;5090454;28;20081;-75
2021/04/16 07:36:40;;;;;;;11.10;5.15;;;8.50;99.90;;;;;;5091546;28;20028;-75
2021/04/16 07:39:16;;;;;;;17.27;5.30;;;8.60;99.90;;;;;;5090451;28;20107;-75
2021/04/16 07:42:14;;;;;;;10.13;4.18;;;8.60;99.90;;;;;;5091881;28;20548;-72
2021/04/16 07:45:01;;;;;;;8.77;4.13;;;8.70;99.90;;;;;;5077824;28;20025;-76
2021/04/16 07:47:30;;;;;;;10.50;3.83;;;9.00;99.90;;;;;;5077866;28;20024;-76
2021/04/16 07:50:03;;;;;;;12.18;4.35;;;9.10;99.90;;;;;;5085277;28;20358;-77
2021/04/16 07:52:40;;;;;;;9.70;4.10;;;9.10;99.90;;;;;;5083387;28;20370;-76
2021/04/16 07:55:31;;;;;;;12.90;4.70;;;9.00;99.90;;;;;;5082200;28;20032;-76
2021/04/16 07:58:25;;;;;;;13.35;4.68;;;9.10;99.90;;;;;;5089935;28;20473;-76
2021/04/16 08:00:51;;;;;;;8.43;3.38;;;9.30;99.90;;;;;;5083334;28;20044;-77
2021/04/16 08:03:20;;;;;;;8.82;3.78;;;9.50;99.90;;;;;;5080491;28;20017;-77
2021/04/16 08:05:48;;;;;;;10.88;4.43;;;9.60;99.90;;;;;;5084436;28;20036;-76
2021/04/16 08:08:17;;;;;;;12.60;4.32;;;9.60;99.90;;;;;;5088442;28;20057;-77
2021/04/16 08:10:57;;;;;;;11.85;4.22;;;9.70;99.90;;;;;;5090520;28;20066;-76
2021/04/16 08:13:26;;;;;;;9.43;4.05;;;9.80;99.90;;;;;;5089469;28;20036;-76
2021/04/16 08:15:54;;;;;;;13.32;4.43;;;10.00;99.90;;;;;;5090494;28;20012;-76
2021/04/16 08:18:27;;;;;;;10.07;4.25;;;10.20;99.90;;;;;;5093594;28;20058;-76
2021/04/16 08:21:02;;;;;;;10.05;4.40;;;10.30;99.90;;;;;;5092514;28;20106;-78
2021/04/16 08:23:37;;;;;;;11.70;4.53;;;10.30;99.90;;;;;;5089689;28;20048;-73
2021/04/16 08:26:09;;;;;;;10.23;4.45;;;10.30;99.90;;;;;;5093818;28;20373;-74
2021/04/16 08:28:59;;;;;;;10.20;3.60;;;10.30;99.90;;;;;;5097347;28;20055;-77
2021/04/16 08:31:33;;;;;;;8.48;3.45;;;10.30;99.90;;;;;;5106637;28;20028;-76
2021/04/16 08:34:06;;;;;;;6.43;3.03;;;10.30;99.90;;;;;;5109604;28;20038;-75
2021/04/16 08:36:43;;;;;;;6.97;3.03;;;10.40;99.90;;;;;;5109038;28;20090;-74
2021/04/16 08:39:14;;;;;;;7.25;3.03;;;10.50;99.90;;;;;;5112071;28;20031;-75
2021/04/16 08:42:10;;;;;;;9.30;4.18;;;10.70;99.90;;;;;;5111431;28;20032;-72
2021/04/16 08:45:00;;;;;;;11.57;3.28;;;10.80;99.90;;;;;;5112934;28;20031;-75
2021/04/16 08:47:41;;;;;;;6.05;2.72;;;10.70;99.90;;;;;;5112984;28;20063;-70
2021/04/16 08:50:08;;;;;;;7.93;2.85;;;10.60;99.90;;;;;;5101249;28;20008;-74
2021/04/16 08:52:50;;;;;;;3.58;2.33;;;10.80;99.90;;;;;;5097466;28;20484;-72
2021/04/16 08:55:30;;;;;;;5.10;2.75;;;10.90;99.90;;;;;;5103684;28;20011;-75
2021/04/16 08:58:10;;;;;;;6.07;2.33;;;11.10;99.90;;;;;;5098358;28;20377;-80
2021/04/16 09:00:46;;;;;;;3.83;2.20;;;11.20;99.90;;;;;;5096293;28;20372;-78
2021/04/16 09:03:21;;;;;;;11.88;2.30;;;11.20;99.90;;;;;;5095298;28;20093;-73
2021/04/16 09:05:56;;;;;;;9.10;2.55;;;11.20;99.90;;;;;;5094547;28;20106;-74
2021/04/16 09:08:34;;;;;;;3.13;2.08;;;11.20;99.90;;;;;;5095575;28;20028;-81
2021/04/16 09:11:00;;;;;;;;;;;11.50;99.90;;;;;;5096203;28;20024;-79
2021/04/16 09:13:41;;;;;;;6.60;2.08;;;11.50;99.30;;;;;;5093318;28;19929;-76
2021/04/16 09:16:16;;;;;;;4.88;2.10;;;11.40;99.90;;;;;;5088474;28;20082;-78
2021/04/16 09:18:44;;;;;;;2.53;2.00;;;11.60;98.00;;;;;;5094800;28;20032;-77
2021/04/16 09:21:29;;;;;;;5.50;2.40;;;11.50;98.60;;;;;;5095544;28;20024;-75
2021/04/16 09:24:10;;;;;;;9.27;2.65;;;11.70;98.00;;;;;;5093963;28;20094;-74
2021/04/16 09:26:47;;;;;;;3.97;2.28;;;11.50;99.70;;;;;;5093167;28;20101;-76
2021/04/16 09:29:28;;;;;;;2.40;1.67;;;11.80;98.00;;;;;;5092719;28;20024;-73
2021/04/16 09:32:03;;;;;;;5.45;2.00;;;12.20;98.40;;;;;;5089293;28;20090;-75
2021/04/16 09:34:48;;;;;;;2.05;1.88;;;12.40;98.20;;;;;;5087881;28;20078;-76
2021/04/16 09:37:29;;;;;;;2.35;1.92;;;12.70;95.30;;;;;;5090556;28;20489;-75
2021/04/16 09:40:15;;;;;;;4.53;1.92;;;12.70;95.20;;;;;;5090708;28;20020;-76
2021/04/16 09:42:49;;;;;;;2.83;1.13;;;12.70;94.40;;;;;;5091101;28;20028;-74
2021/04/16 09:45:34;;;;;;;3.38;1.30;;;12.90;91.70;;;;;;5091807;28;20040;-73
2021/04/16 09:48:19;;;;;;;2.88;1.40;;;13.20;88.80;;;;;;5092761;28;20423;-74
2021/04/16 09:50:57;;;;;;;4.65;1.33;;;12.70;89.60;;;;;;5092882;28;20067;-75
2021/04/16 09:53:29;;;;;;;2.28;1.40;;;12.80;91.20;;;;;;5083019;28;20024;-75
2021/04/16 09:55:58;;;;;;;1.83;1.23;;;13.10;91.30;;;;;;5089814;28;20025;-74
2021/04/16 09:58:34;;;;;;;2.58;1.27;;;13.30;91.80;;;;;;5093595;28;20046;-74
2021/04/16 10:01:02;;;;;;;0.85;0.82;;;13.70;88.40;;;;;;5093374;28;20036;-74
2021/04/16 10:03:46;;;;;;;1.80;1.13;;;14.10;84.50;;;;;;5093974;28;20513;-73
2021/04/16 10:06:40;;;;;;;1.90;1.33;;;14.00;87.60;;;;;;5093199;28;20074;-74
2021/04/16 10:09:17;;;;;;;2.30;1.40;;;14.20;86.20;;;;;;5095258;28;20071;-74
2021/04/16 10:11:59;;;;;;;5.47;1.25;;;14.10;88.60;;;;;;5093301;28;20060;-74
2021/04/16 10:14:24;;;;;;;2.85;1.27;;;14.10;86.00;;;;;;5086763;28;20564;-74
2021/04/16 10:17:18;;;;;;;5.72;2.00;;;14.40;87.30;;;;;;5092639;28;20021;-74
2021/04/16 10:20:05;;;;;;;4.10;1.98;;;13.70;90.40;;;;;;5088958;28;20027;-74
2021/04/16 10:22:36;;;;;;;1.93;1.30;;;13.70;93.20;;;;;;5091288;28;20028;-74
2021/04/16 11:21:17;;;;;;;8.13;2.38;;;13.20;94.40;;;;;;5092484;28;20119;-72
2021/04/16 12:38:58;;;;;;;6.97;1.88;;;13.10;94.30;;;;;;5096636;28;20447;-72
2021/04/16 12:41:28;;;;;;;3.90;2.10;;;12.80;93.70;;;;;;5112870;28;20043;-72
2021/04/16 12:43:54;;;;;;;3.60;2.17;;;12.70;95.10;;;;;;5097800;28;20107;-72
2021/04/16 12:46:23;;;;;;;3.35;1.85;;;13.10;94.60;;;;;;5111624;28;20103;-73
2021/04/16 12:48:49;;;;;;;2.75;1.85;;;13.40;93.80;;;;;;5113822;28;20035;-72
2021/04/16 12:51:15;;;;;;;9.70;2.72;;;13.60;94.30;;;;;;5112237;28;20043;-72
2021/04/16 12:53:40;;;;;;;3.70;2.15;;;13.90;94.10;;;;;;5112481;28;20622;-73
2021/04/16 12:56:12;;;;;;;4.53;1.80;;;14.10;92.80;;;;;;5116365;28;20024;-72
2021/04/16 12:58:44;;;;;;;3.63;2.20;;;14.00;93.30;;;;;;5119168;28;20048;-74
2021/04/16 13:01:21;;;;;;;4.68;2.35;;;13.90;91.80;;;;;;5118386;28;20008;-72
2021/04/16 13:03:50;;;;;;;;;;;13.40;92.60;;;;;;5120492;28;20012;-73
2021/04/16 13:06:33;;;;;;;2.95;1.85;;;13.50;92.90;;;;;;5112200;28;19966;-73
2021/04/16 13:08:59;;;;;;;4.60;1.77;;;13.70;92.70;;;;;;5099357;28;20040;-73
2021/04/16 13:11:27;;;;;;;3.88;1.85;;;13.60;91.60;;;;;;5092063;28;20041;-73
2021/04/16 13:13:53;;;;;;;5.30;1.52;;;13.60;92.20;;;;;;5095498;28;20032;-73
2021/04/16 13:16:20;;;;;;;1.90;1.60;;;13.70;92.20;;;;;;5097006;28;20491;-73
2021/04/16 13:19:13;;;;;;;4.72;1.70;;;13.80;91.30;;;;;;5095425;28;20023;-73
2021/04/16 13:21:41;;;;;;;2.78;1.73;;;14.00;92.70;;;;;;5074245;28;20496;-73
2021/04/16 13:24:08;;;;;;;;;;;13.90;90.40;;;;;;5094795;28;20047;-72
2021/04/16 13:26:34;;;;;;;3.37;2.10;;;14.00;91.10;;;;;;5094991;28;19912;-75
2021/04/16 13:29:00;;;;;;;5.30;2.00;;;14.00;89.90;;;;;;5093832;28;20085;-74
2021/04/16 13:31:29;;;;;;;2.63;1.63;;;13.80;90.40;;;;;;5094409;28;20028;-76
2021/04/16 13:33:55;;;;;;;2.55;2.10;;;14.00;90.60;;;;;;5094094;28;20371;-74
2021/04/16 13:36:24;;;;;;;4.90;1.90;;;13.90;91.50;;;;;;5096481;28;20035;-74
2021/04/16 13:38:51;;;;;;;2.35;1.20;;;14.10;90.60;;;;;;5094645;28;20488;-75
2021/04/16 13:41:17;;;;;;;7.82;1.40;;;14.40;90.30;;;;;;5093754;28;20048;-74
2021/04/16 13:43:43;;;;;;;1.63;1.52;;;14.30;88.20;;;;;;5095357;28;20028;-74
2021/04/16 13:46:18;;;;;;;4.65;1.77;;;14.00;90.30;;;;;;5094308;28;20051;-74
2021/04/16 13:48:45;;;;;;;5.40;1.75;;;14.20;90.10;;;;;;5089852;28;20396;-75
2021/04/16 13:51:11;;;;;;;3.95;1.65;;;14.50;89.40;;;;;;5095670;28;20089;-75
2021/04/16 13:53:36;;;;;;;2.90;1.50;;;14.50;90.50;;;;;;5093010;28;20036;-75
2021/04/16 13:56:02;;;;;;;3.15;1.50;;;14.70;88.90;;;;;;5093732;28;20027;-74
2021/04/16 13:58:28;;;;;;;2.22;1.10;;;14.70;88.00;;;;;;5093702;28;20020;-75
2021/04/16 14:00:54;;;;;;;3.30;1.52;;;14.50;87.60;;;;;;5095019;28;20365;-75
2021/04/16 14:03:28;;;;;;;1.70;1.55;;;14.30;89.60;;;;;;5094861;28;20027;-75
2021/04/16 14:05:56;;;;;;;3.85;1.60;;;14.30;89.90;;;;;;5095471;28;20032;-74
2021/04/16 14:08:34;;;;;;;2.10;1.63;;;14.20;88.00;;;;;;5093480;28;20047;-74
2021/04/16 14:11:01;;;;;;;2.33;1.25;;;14.20;90.30;;;;;;5109698;28;20127;-75
2021/04/16 14:13:28;;;;;;;2.65;1.50;;;14.10;90.30;;;;;;5094808;28;20487;-75
2021/04/16 14:16:01;;;;;;;2.03;1.00;;;14.00;90.60;;;;;;5094396;28;20376;-74
2021/04/16 14:18:40;;;;;;;3.00;1.30;;;14.00;89.90;;;;;;5093677;28;20040;-74
2021/04/16 14:21:10;;;;;;;1.95;1.20;;;14.00;90.60;;;;;;5078997;28;20039;-74
2021/04/16 14:23:36;;;;;;;2.58;1.52;;;14.10;90.60;;;;;;5094653;28;20043;-74
2021/04/16 14:26:03;;;;;;;1.55;1.45;;;14.20;90.10;;;;;;5094795;28;20055;-74
2021/04/16 14:28:28;;;;;;;5.33;1.60;;;14.00;89.80;;;;;;5111167;28;20552;-74
2021/04/16 14:30:55;;;;;;;3.45;1.50;;;14.00;90.90;;;;;;5095974;28;20107;-74
2021/04/16 14:33:26;;;;;;;3.38;1.40;;;14.20;91.00;;;;;;5094710;28;20032;-73
2021/04/16 14:35:52;;;;;;;6.20;2.05;;;14.10;90.40;;;;;;5095928;28;20075;-73
2021/04/16 14:38:18;;;;;;;4.68;1.58;;;14.00;90.60;;;;;;5094758;28;20035;-73
2021/04/16 14:40:44;;;;;;;3.03;1.38;;;14.00;91.20;;;;;;5093031;28;20028;-73
2021/04/16 14:43:10;;;;;;;3.00;1.58;;;13.70;91.60;;;;;;5095990;28;20427;-73
2021/04/16 14:45:40;;;;;;;2.80;1.60;;;13.60;91.60;;;;;;5096453;28;20047;-75
2021/04/16 14:48:07;;;;;;;2.03;1.13;;;13.70;92.00;;;;;;5095869;28;20210;-73
2021/04/16 14:50:32;;;;;;;7.47;1.70;;;13.70;90.50;;;;;;5095929;28;20054;-72
2021/04/16 14:53:12;;;;;;;5.03;1.90;;;13.90;90.30;;;;;;5095758;28;20028;-73
2021/04/16 14:55:39;;;;;;;2.13;1.58;;;13.70;90.30;;;;;;5097215;28;20024;-73
2021/04/16 14:58:08;;;;;;;2.45;1.50;;;13.80;90.30;;;;;;5097043;28;20028;-73
2021/04/16 15:00:35;;;;;;;2.17;1.20;;;13.80;89.90;;;;;;5098583;28;20070;-74
2021/04/16 15:03:02;;;;;;;1.50;1.13;;;13.90;90.00;;;;;;5098155;28;20020;-74
2021/04/16 15:05:27;;;;;;;1.80;1.23;;;13.80;90.00;;;;;;5100385;28;20417;-73
2021/04/16 15:08:00;;;;;;;4.68;1.55;;;13.80;89.20;;;;;;5109319;28;20052;-73
2021/04/16 15:10:49;;;;;;;3.55;1.42;;;13.80;90.00;;;;;;5110095;28;20040;-73
2021/04/16 15:13:26;;;;;;;6.93;1.60;;;13.70;90.40;;;;;;5111151;28;20058;-74
2021/04/16 15:15:52;;;;;;;1.98;1.40;;;13.60;90.50;;;;;;5111796;28;20035;-72
2021/04/16 15:18:19;;;;;;;5.25;2.65;;;13.80;90.00;;;;;;5116412;28;20391;-73
2021/04/16 15:20:47;;;;;;;2.92;1.15;;;13.80;90.60;;;;;;5115322;28;20044;-73